Aérodrome :
LOGIN :

S'inscrire | Disclaimer

   EN    FR    IT 

 










Légende :    VFR   VFR Marginal   IFR   IFR Intensif   IFR Très Intensif
Visi : 
Plafond : 
>= 8 km
>= 3000ft
5 à 8 km
1000 à 3000 ft
1500m à 5 km
500 à 1000 ft
800 à 1500m
200 à 500 ft
< 800m
< 200 ft
Symboles :   Orages  Brouillard  Fortes neiges  Fortes précipitations  Vent > 20 kt
SIGMETs :   Divers  Orages  Givrage  Turbulence  Onde Orograph.  Cendres Volcan.






- Altitude de l'aérodrome : 82 ft
- Code IATA : QIE


LFMI - Istres

DERNIER METAR :
  • 260000Z AUTO 35011KT CAVOK 20/10 Q1024

METARs EXPIRÉS :
  • 252330Z AUTO 35013KT CAVOK 21/10 Q1024
  • 252300Z AUTO 35017KT CAVOK 21/10 Q1023
  • 252230Z AUTO 34015KT CAVOK 21/10 Q1024
  • 252200Z AUTO 34013KT CAVOK 22/10 Q1024
  • 252130Z AUTO 34012KT CAVOK 22/10 Q1024

TAF TAF LFMI
Valide du 25 à 15h jusqu'au 26 à 15h UTC


251400Z 2515/2615 32012KT CAVOK
TEMPO 2521/2606 34015G25KT



MET'MAP, la Météo Aéronautique d'un coup d'oeil ! - Copyright ORBIFLY Décembre 2007 - Disclaimer

ORBIFLY MET'MAP TEAM :

Programmation & Développement : Alexandra Zaïnal
Sur une idée originale de : Baudouin d'Aumeries
Assistance à la programmation : Marc-Olivier Méhu
Soutien technique & logistique : Manuel Goepfert

Contact : metmap@orbifly.com




SOURCES & CREDITS :

   NOAA